Time;durP1;ratioP1;P1;durP2;ratioP2;P2;SDS_P1;SDS_P2;PMS_P1;PMS_P2;Temp;Humidity;BMP_temperature;BMP_pressure;BME280_temperature;BME280_humidity;BME280_pressure;Samples;Min_cycle;Max_cycle;Signal;HPM_P1;HPM_P2
2022/11/05 00:10:01;;;;;;;;;;;10.20;99.90;;;;;;5073370;28;19939;-76
2022/11/05 00:17:55;;;;;;;;;;;10.20;99.90;;;;;;5073246;28;20427;-76
2022/11/05 00:20:20;;;;;;;;;;;10.20;99.90;;;;;;5074100;28;19959;-75
2022/11/05 00:25:30;;;;;;;;;;;10.10;99.90;;;;;;5073504;28;19915;-75
2022/11/05 00:27:59;;;;;;;;;;;10.10;99.90;;;;;;5071886;28;19916;-76
2022/11/05 00:30:25;;;;;;;;;;;10.10;99.90;;;;;;5087972;28;19920;-75
2022/11/05 00:32:51;;;;;;;;;;;10.10;99.90;;;;;;5073170;28;19913;-76
2022/11/05 00:35:18;;;;;;;;;;;10.10;99.90;;;;;;5071470;28;20365;-76
2022/11/05 00:37:44;;;;;;;;;;;10.10;99.90;;;;;;5073200;28;19913;-76
2022/11/05 00:40:10;;;;;;;;;;;10.20;99.90;;;;;;5071501;28;19959;-77
2022/11/05 00:45:22;;;;;;;;;;;10.20;99.90;;;;;;5073064;28;19915;-77
2022/11/05 00:50:32;;;;;;;;;;;10.20;99.90;;;;;;5073586;28;20372;-76
2022/11/05 00:52:59;;;;;;;;;;;10.30;99.90;;;;;;5072913;28;19997;-74
2022/11/05 00:55:27;;;;;;;;;;;10.20;99.90;;;;;;5073366;28;19921;-76
2022/11/05 00:57:54;;;;;;;;;;;10.20;99.90;;;;;;5072786;28;19909;-77
2022/11/05 01:00:20;;;;;;;;;;;10.20;99.90;;;;;;5072432;28;19908;-77
2022/11/05 01:02:46;;;;;;;;;;;10.20;99.90;;;;;;5072225;28;20190;-77
2022/11/05 01:05:11;;;;;;;;;;;10.20;99.90;;;;;;5072711;28;19999;-77
2022/11/05 01:07:37;;;;;;;;;;;10.20;99.90;;;;;;5072858;28;19909;-77
2022/11/05 01:10:03;;;;;;;;;;;10.20;99.90;;;;;;5071084;28;19912;-77
2022/11/05 01:12:29;;;;;;;;;;;10.20;99.90;;;;;;5072676;28;19912;-76
2022/11/05 01:14:55;;;;;;;;;;;10.10;99.90;;;;;;5072958;28;19948;-76
2022/11/05 01:17:20;;;;;;;;;;;10.10;99.90;;;;;;5072530;28;19939;-76
2022/11/05 01:19:46;;;;;;;;;;;10.10;99.90;;;;;;5071603;28;20281;-76
2022/11/05 01:22:12;;;;;;;;;;;10.10;99.90;;;;;;5072306;28;19915;-76
2022/11/05 01:24:37;;;;;;;;;;;10.10;99.90;;;;;;5072494;28;19908;-76
2022/11/05 01:27:03;;;;;;;;;;;10.10;99.90;;;;;;5072305;28;20289;-76
2022/11/05 01:29:28;;;;;;;;;;;10.10;99.90;;;;;;5072839;28;20262;-76
2022/11/05 01:31:54;;;;;;;;;;;10.10;99.90;;;;;;5072584;28;19913;-76
2022/11/05 01:34:19;;;;;;;;;;;10.10;99.90;;;;;;5072543;28;19920;-76
2022/11/05 01:36:45;;;;;;;;;;;10.10;99.90;;;;;;5072822;28;19908;-76
2022/11/05 01:39:11;;;;;;;;;;;10.20;99.90;;;;;;5072217;28;19962;-77
2022/11/05 01:41:36;;;;;;;;;;;10.20;99.90;;;;;;5071587;28;19913;-77
2022/11/05 01:44:02;;;;;;;;;;;10.20;99.90;;;;;;5072403;28;20296;-77
2022/11/05 01:46:33;;;;;;;;;;;10.20;99.90;;;;;;5072781;28;19994;-76
2022/11/05 01:49:07;;;;;;;;;;;10.20;99.90;;;;;;5072567;28;19909;-77
2022/11/05 01:51:33;;;;;;;;;;;10.20;99.90;;;;;;5072533;28;19912;-77
2022/11/05 01:54:01;;;;;;;;;;;10.20;99.90;;;;;;5072661;28;19995;-78
2022/11/05 01:56:47;;;;;;;;;;;10.20;99.90;;;;;;5072208;28;19920;-77
2022/11/05 01:59:39;;;;;;;;;;;10.20;99.90;;;;;;5072246;28;19908;-78
2022/11/05 02:02:06;;;;;;;;;;;10.20;99.90;;;;;;5070968;28;19971;-77
2022/11/05 02:04:35;;;;;;;;;;;10.20;99.90;;;;;;5072601;28;19909;-77
2022/11/05 02:07:01;;;;;;;;;;;10.20;99.90;;;;;;5072015;28;19916;-78
2022/11/05 02:09:29;;;;;;;;;;;10.20;99.90;;;;;;5072356;28;19999;-77
2022/11/05 02:11:54;;;;;;;;;;;10.30;99.90;;;;;;5072696;28;19912;-77
2022/11/05 02:14:20;;;;;;;;;;;10.20;99.90;;;;;;5075839;28;19916;-77
2022/11/05 02:16:48;;;;;;;;;;;10.30;99.90;;;;;;5076222;28;19913;-77
2022/11/05 02:19:32;;;;;;;;;;;10.30;99.90;;;;;;5076095;28;19964;-76
2022/11/05 02:22:08;;;;;;;;;;;10.30;99.90;;;;;;5076589;28;19909;-76
2022/11/05 02:24:57;;;;;;;;;;;10.30;99.90;;;;;;5076134;28;19909;-76
2022/11/05 02:27:41;;;;;;;;;;;10.30;99.90;;;;;;5076060;28;20685;-76
2022/11/05 02:30:22;;;;;;;;;;;10.30;99.90;;;;;;5075620;28;20529;-76
2022/11/05 02:33:05;;;;;;;;;;;10.30;99.90;;;;;;5076648;28;19912;-76
2022/11/05 02:35:37;;;;;;;;;;;10.30;99.90;;;;;;5076365;28;20270;-77
2022/11/05 02:38:13;;;;;;;;;;;10.30;99.90;;;;;;5079069;28;19908;-77
2022/11/05 02:40:46;;;;;;;;;;;10.20;99.90;;;;;;5081918;28;19915;-77
2022/11/05 02:43:23;;;;;;;;;;;10.20;99.90;;;;;;5075317;28;20280;-76
2022/11/05 02:46:07;;;;;;;;;;;10.30;99.90;;;;;;5075828;28;19908;-76
2022/11/05 02:48:42;;;;;;;;;;;10.30;99.90;;;;;;5075768;28;19908;-77
2022/11/05 02:51:27;;;;;;;;;;;10.20;99.90;;;;;;5075145;28;19913;-77
2022/11/05 02:53:52;;;;;;;;;;;10.30;99.90;;;;;;5076390;28;19927;-77
2022/11/05 02:56:23;;;;;;;;;;;10.20;99.90;;;;;;5087897;28;19924;-78
2022/11/05 02:58:49;;;;;;;;;;;10.20;99.90;;;;;;5095852;28;20372;-77
2022/11/05 03:01:14;;;;;;;;;;;10.30;99.90;;;;;;5095645;28;19908;-77
2022/11/05 03:03:49;;;;;;;;;;;10.30;99.90;;;;;;5095988;28;20260;-77
2022/11/05 03:06:33;;;;;;;;;;;10.30;99.90;;;;;;5095442;28;19908;-77
2022/11/05 03:09:04;;;;;;;;;;;10.30;99.90;;;;;;5095992;28;19915;-76
2022/11/05 03:11:31;;;;;;;;;;;10.30;99.90;;;;;;5095711;28;19912;-77
2022/11/05 03:14:11;;;;;;;;;;;10.20;99.90;;;;;;5095862;28;20013;-75
2022/11/05 03:16:39;;;;;;;;;;;10.30;99.90;;;;;;5095805;28;20353;-76
2022/11/05 03:19:07;;;;;;;;;;;10.30;99.90;;;;;;5095138;28;19914;-76
2022/11/05 03:21:41;;;;;;;;;;;10.30;99.90;;;;;;5095375;28;19951;-77
2022/11/05 03:24:19;;;;;;;;;;;10.40;99.90;;;;;;5094528;28;19923;-77
2022/11/05 03:26:47;;;;;;;;;;;10.40;99.90;;;;;;5095600;28;20269;-77
2022/11/05 03:29:16;;;;;;;;;;;10.40;99.90;;;;;;5094979;28;19908;-77
2022/11/05 03:31:43;;;;;;;;;;;10.40;99.90;;;;;;5095402;28;19912;-77
2022/11/05 03:34:11;;;;;;;;;;;10.40;99.90;;;;;;5094631;28;19912;-76
2022/11/05 03:36:40;;;;;;;;;;;10.40;99.90;;;;;;5095261;28;19999;-76
2022/11/05 03:39:07;;;;;;;;;;;10.40;99.90;;;;;;5095162;28;19908;-76
2022/11/05 03:41:33;;;;;;;;;;;10.40;99.90;;;;;;5094968;28;19940;-77
2022/11/05 03:44:01;;;;;;;;;;;10.40;99.90;;;;;;5094887;28;19908;-76
2022/11/05 03:46:30;;;;;;;;;;;10.30;99.90;;;;;;5094350;28;19904;-76
2022/11/05 03:48:57;;;;;;;;;;;10.30;99.90;;;;;;5094868;28;20357;-77
2022/11/05 03:51:26;;;;;;;;;;;10.40;99.90;;;;;;5094432;28;19912;-77
2022/11/05 03:53:54;;;;;;;;;;;10.30;99.90;;;;;;5094811;28;19912;-77
2022/11/05 03:56:24;;;;;;;;;;;10.40;99.90;;;;;;5093999;28;20317;-77
2022/11/05 03:58:50;;;;;;;;;;;10.30;99.90;;;;;;5094870;28;19915;-77
2022/11/05 04:01:15;;;;;;;;;;;10.30;99.90;;;;;;5076194;28;19995;-77
2022/11/05 04:03:41;;;;;;;;;;;10.30;99.90;;;;;;5094824;28;19915;-77
2022/11/05 04:14:22;;;;;;;;;;;10.20;99.90;;;;;;5093711;28;19915;-75
2022/11/05 04:17:07;;;;;;;;;;;10.20;99.90;;;;;;5094581;28;19908;-76
2022/11/05 04:25:01;;;;;;;;;;;10.10;99.90;;;;;;5094560;28;19970;-76
2022/11/05 04:27:27;;;;;;;;;;;10.10;99.90;;;;;;5093720;28;19948;-76
2022/11/05 04:32:37;;;;;;;;;;;10.10;99.90;;;;;;5093948;28;20325;-75
2022/11/05 04:35:02;;;;;;;;;;;10.10;99.90;;;;;;5094314;28;19908;-75
2022/11/05 04:37:28;;;;;;;;;;;10.10;99.90;;;;;;5092742;28;19909;-75
2022/11/05 04:39:53;;;;;;;;;;;10.10;99.90;;;;;;5094167;28;19908;-76
2022/11/05 04:42:19;;;;;;;;;;;10.00;99.90;;;;;;5093470;28;19922;-76
2022/11/05 04:44:45;;;;;;;;;;;10.00;99.90;;;;;;5094118;28;19908;-75
2022/11/05 04:47:10;;;;;;;;;;;10.00;99.90;;;;;;5093466;28;19908;-77
2022/11/05 04:49:36;;;;;;;;;;;10.10;99.90;;;;;;5093239;28;20301;-75
2022/11/05 04:52:01;;;;;;;;;;;10.20;99.90;;;;;;5093878;28;19919;-76
2022/11/05 04:54:27;;;;;;;;;;;10.20;99.90;;;;;;5093152;28;19908;-77
2022/11/05 04:56:52;;;;;;;;;;;10.40;99.90;;;;;;5093600;28;19927;-76
2022/11/05 04:59:18;;;;;;;;;;;10.50;99.90;;;;;;5091958;28;20006;-75
2022/11/05 05:01:43;;;;;;;;;;;10.50;99.90;;;;;;5093714;28;19908;-76
2022/11/05 05:04:09;;;;;;;;;;;10.60;99.90;;;;;;5093919;28;19908;-75
2022/11/05 05:06:35;;;;;;;;;;;10.80;99.90;;;;;;5093105;28;19909;-77
2022/11/05 05:09:00;;;;;;;;;;;10.90;99.90;;;;;;5093197;28;19919;-77
2022/11/05 05:11:26;;;;;;;;;;;11.00;99.90;;;;;;5092784;28;19967;-76
2022/11/05 05:13:51;;;;;;;;;;;11.00;99.90;;;;;;5093602;28;19915;-75
2022/11/05 05:16:19;;;;;;;;;;;11.10;99.90;;;;;;5093057;28;19915;-76
2022/11/05 05:18:45;;;;;;;;;;;11.10;99.90;;;;;;5093332;28;19908;-76
2022/11/05 05:23:55;;;;;;;;;;;11.20;99.90;;;;;;5093334;28;19958;-76
2022/11/05 05:26:21;;;;;;;;;;;11.30;99.90;;;;;;5092434;28;19912;-76
2022/11/05 05:28:46;;;;;;;;;;;11.50;99.90;;;;;;5091938;28;19919;-75
2022/11/05 05:31:12;;;;;;;;;;;11.50;99.90;;;;;;5093412;28;19923;-75
2022/11/05 05:33:37;;;;;;;;;;;11.60;99.90;;;;;;5092735;28;19962;-75
2022/11/05 05:36:03;;;;;;;;;;;11.70;99.90;;;;;;5093745;28;19911;-75
2022/11/05 05:38:28;;;;;;;;;;;11.80;99.90;;;;;;5092590;28;20270;-75
2022/11/05 05:40:58;;;;;;;;;;;11.80;99.90;;;;;;5093112;28;19908;-76
2022/11/05 05:43:24;;;;;;;;;;;11.80;99.90;;;;;;5092829;28;20326;-76
2022/11/05 05:45:49;;;;;;;;;;;11.90;99.90;;;;;;5093102;28;20072;-77
2022/11/05 05:48:15;;;;;;;;;;;11.90;99.90;;;;;;5093230;28;20373;-77
2022/11/05 05:50:41;;;;;;;;;;;11.90;99.90;;;;;;5092991;28;19912;-76
2022/11/05 05:53:06;;;;;;;;;;;12.00;99.90;;;;;;5093044;28;19922;-76
2022/11/05 05:55:32;;;;;;;;;;;12.00;99.90;;;;;;5092052;28;19920;-76
2022/11/05 05:57:57;;;;;;;;;;;12.10;99.90;;;;;;5093353;28;19912;-76
2022/11/05 06:00:23;;;;;;;;;;;12.10;99.90;;;;;;5092619;28;19912;-76
2022/11/05 06:02:48;;;;;;;;;;;12.10;99.90;;;;;;5092808;28;19908;-76
2022/11/05 06:05:14;;;;;;;;;;;12.20;99.90;;;;;;5092685;28;19909;-76
2022/11/05 06:07:40;;;;;;;;;;;12.10;99.90;;;;;;5092321;28;19951;-76
2022/11/05 06:10:06;;;;;;;;;;;12.10;99.90;;;;;;5092911;28;19949;-76
2022/11/05 06:12:31;;;;;;;;;;;12.20;99.90;;;;;;5091957;28;19912;-76
2022/11/05 06:14:57;;;;;;;;;;;12.20;99.90;;;;;;5092932;28;19908;-75
2022/11/05 06:17:23;;;;;;;;;;;12.20;99.90;;;;;;5092306;28;19915;-77
2022/11/05 06:19:48;;;;;;;;;;;12.20;99.90;;;;;;5092208;28;19908;-76
2022/11/05 06:22:14;;;;;;;;;;;12.20;99.90;;;;;;5092567;28;19916;-76
2022/11/05 06:24:40;;;;;;;;;;;12.20;99.90;;;;;;5090789;28;19915;-76
2022/11/05 06:27:05;;;;;;;;;;;12.20;99.90;;;;;;5092332;28;19935;-75
2022/11/05 06:29:31;;;;;;;;;;;12.20;99.90;;;;;;5091464;28;19908;-76
2022/11/05 06:31:57;;;;;;;;;;;12.20;99.90;;;;;;5092148;28;20451;-76
2022/11/05 06:34:22;;;;;;;;;;;12.30;99.90;;;;;;5092258;28;19961;-76
2022/11/05 06:36:48;;;;;;;;;;;12.20;99.90;;;;;;5092755;28;19913;-77
2022/11/05 06:39:13;;;;;;;;;;;12.20;99.90;;;;;;5092410;28;20354;-75
2022/11/05 06:41:39;;;;;;;;;;;12.20;99.90;;;;;;5092733;28;19946;-76
2022/11/05 06:44:04;;;;;;;;;;;12.20;99.90;;;;;;5092247;28;19999;-77
2022/11/05 06:46:30;;;;;;;;;;;12.30;99.90;;;;;;5091839;28;19909;-77
2022/11/05 06:48:55;;;;;;;;;;;12.20;99.90;;;;;;5092390;28;19931;-76
2022/11/05 06:51:21;;;;;;;;;;;12.30;99.90;;;;;;5091987;28;19912;-77
2022/11/05 06:53:47;;;;;;;;;;;12.30;99.90;;;;;;5092523;28;20388;-76
2022/11/05 06:56:12;;;;;;;;;;;12.30;99.90;;;;;;5092406;28;20007;-76
2022/11/05 06:58:38;;;;;;;;;;;12.30;99.90;;;;;;5091587;28;19915;-77
2022/11/05 07:01:06;;;;;;;;;;;12.30;99.90;;;;;;5094959;28;19908;-77
2022/11/05 07:03:32;;;;;;;;;;;12.40;99.90;;;;;;5095528;28;20002;-77
2022/11/05 07:05:59;;;;;;;;;;;12.40;99.90;;;;;;5095650;28;20382;-76
2022/11/05 07:08:25;;;;;;;;;;;12.40;99.90;;;;;;5093986;28;19915;-77
2022/11/05 07:10:51;;;;;;;;;;;12.50;99.90;;;;;;5095385;28;20361;-76
2022/11/05 07:13:17;;;;;;;;;;;12.50;99.90;;;;;;5095866;28;19998;-76
2022/11/05 07:15:42;;;;;;;;;;;12.50;99.90;;;;;;5095182;28;19912;-77
2022/11/05 07:18:08;;;;;;;;;;;12.50;99.90;;;;;;5095557;28;20304;-76
2022/11/05 07:20:34;;;;;;;;;;;12.50;99.90;;;;;;5095060;28;19962;-77
2022/11/05 07:23:07;;;;;;;;;;;12.50;99.90;;;;;;5095137;28;20324;-76
2022/11/05 07:25:33;;;;;;;;;;;12.50;99.90;;;;;;5095031;28;19916;-76
2022/11/05 07:27:59;;;;;;;;;;;12.50;99.90;;;;;;5095589;28;20357;-75
2022/11/05 07:30:25;;;;;;;;;;;12.50;99.90;;;;;;5094764;28;19912;-76
2022/11/05 07:32:51;;;;;;;;;;;12.50;99.90;;;;;;5095396;28;20007;-75
2022/11/05 07:35:16;;;;;;;;;;;12.50;99.90;;;;;;5095268;28;19913;-76
2022/11/05 07:37:46;;;;;;;;;;;12.50;99.90;;;;;;5095093;28;19957;-76
2022/11/05 07:40:12;;;;;;;;;;;12.60;99.90;;;;;;5095367;28;19909;-75
2022/11/05 07:42:42;;;;;;;;;;;12.60;99.90;;;;;;5094541;28;19915;-76
2022/11/05 07:45:08;;;;;;;;;;;12.60;99.90;;;;;;5094985;28;20426;-76
2022/11/05 07:47:35;;;;;;;;;;;12.60;99.90;;;;;;5094771;28;19957;-74
2022/11/05 07:50:01;;;;;;;;;;;12.70;99.90;;;;;;5095440;28;20450;-74
2022/11/05 07:52:27;;;;;;;;;;;12.70;99.90;;;;;;5094431;28;19920;-75
2022/11/05 07:54:52;;;;;;;;;;;12.70;99.90;;;;;;5095076;28;20356;-75
2022/11/05 07:57:18;;;;;;;;;;;12.80;99.90;;;;;;5095265;28;19943;-75
2022/11/05 07:59:43;;;;;;;;;;;12.70;99.90;;;;;;5094178;28;19914;-76
2022/11/05 08:02:09;;;;;;;;;;;12.70;99.90;;;;;;5095069;28;19915;-75
2022/11/05 08:04:34;;;;;;;;;;;12.70;99.90;;;;;;5094420;28;19908;-75
2022/11/05 08:07:00;;;;;;;;;;;12.70;99.90;;;;;;5095165;28;20392;-75
2022/11/05 08:09:25;;;;;;;;;;;12.70;99.90;;;;;;5094448;28;19970;-76
2022/11/05 08:11:53;;;;;;;;;;;12.80;99.90;;;;;;5093993;28;19920;-75
2022/11/05 08:14:18;;;;;;;;;;;12.70;99.90;;;;;;5094648;28;19908;-75
2022/11/05 08:16:44;;;;;;;;;;;12.80;99.90;;;;;;5094013;28;19989;-74
2022/11/05 08:19:09;;;;;;;;;;;12.80;99.90;;;;;;5093577;28;19916;-75
2022/11/05 08:21:35;;;;;;;;;;;12.80;99.90;;;;;;5092955;28;19946;-76
2022/11/05 08:24:00;;;;;;;;;;;12.70;99.90;;;;;;5094170;28;20246;-75
2022/11/05 08:26:26;;;;;;;;;;;12.70;99.90;;;;;;5094002;28;20010;-77
2022/11/05 08:28:51;;;;;;;;;;;12.80;99.90;;;;;;5094272;28;19908;-76
2022/11/05 08:31:17;;;;;;;;;;;12.80;99.90;;;;;;5093052;28;19912;-75
2022/11/05 08:33:42;;;;;;;;;;;12.80;99.90;;;;;;5093678;28;20365;-76
2022/11/05 08:36:08;;;;;;;;;;;12.90;99.90;;;;;;5093547;28;19912;-76
2022/11/05 08:38:34;;;;;;;;;;;12.90;99.90;;;;;;5092948;28;19931;-76
2022/11/05 08:40:59;;;;;;;;;;;12.90;99.90;;;;;;5093609;28;20331;-76
2022/11/05 08:43:25;;;;;;;;;;;12.90;99.90;;;;;;5092783;28;20011;-76
2022/11/05 08:45:51;;;;;;;;;;;12.90;99.90;;;;;;5093571;28;19915;-76
2022/11/05 08:48:17;;;;;;;;;;;12.90;99.90;;;;;;5094387;28;19943;-75
2022/11/05 08:50:44;;;;;;;;;;;12.90;99.90;;;;;;5093351;28;19974;-74
2022/11/05 08:53:10;;;;;;;;;;;13.00;99.90;;;;;;5093921;28;19920;-75
2022/11/05 08:55:37;;;;;;;;;;;13.00;99.90;;;;;;5092773;28;20328;-74
2022/11/05 08:58:11;;;;;;;;;;;13.00;99.90;;;;;;5093849;28;19908;-76
2022/11/05 09:00:37;;;;;;;;;;;13.10;99.90;;;;;;5093195;28;19959;-75
2022/11/05 09:03:04;;;;;;;;;;;13.10;99.90;;;;;;5093861;28;19908;-75
2022/11/05 09:05:30;;;;;;;;;;;13.10;99.90;;;;;;5092040;28;19957;-77
2022/11/05 09:07:56;;;;;;;;;;;13.10;99.90;;;;;;5093269;28;19954;-75
2022/11/05 09:10:22;;;;;;;;;;;13.10;99.90;;;;;;5093066;28;19998;-75
2022/11/05 09:12:47;;;;;;;;;;;13.10;99.90;;;;;;5093000;28;20185;-76
2022/11/05 09:15:13;;;;;;;;;;;13.20;99.90;;;;;;5092939;28;19915;-75
2022/11/05 09:17:39;;;;;;;;;;;13.20;99.90;;;;;;5092819;28;19955;-75
2022/11/05 09:20:06;;;;;;;;;;;13.20;99.90;;;;;;5091913;28;19966;-75
2022/11/05 09:22:31;;;;;;;;;;;13.30;99.90;;;;;;5091974;28;19915;-76
2022/11/05 09:24:57;;;;;;;;;;;13.30;99.90;;;;;;5092952;28;19908;-74
2022/11/05 09:27:23;;;;;;;;;;;13.20;99.90;;;;;;5092978;28;20380;-75
2022/11/05 09:29:48;;;;;;;;;;;13.30;99.90;;;;;;5091957;28;19931;-75
2022/11/05 09:32:17;;;;;;;;;;;13.30;99.90;;;;;;5092815;28;19989;-75
2022/11/05 09:34:43;;;;;;;;;;;13.30;99.90;;;;;;5091345;28;19999;-76
2022/11/05 09:37:09;;;;;;;;;;;13.30;99.90;;;;;;5091586;28;20368;-75
2022/11/05 09:39:35;;;;;;;;;;;13.30;99.90;;;;;;5092199;28;19912;-76
2022/11/05 09:42:03;;;;;;;;;;;13.30;99.90;;;;;;5093183;28;19939;-76
2022/11/05 09:44:36;;;;;;;;;;;13.30;99.90;;;;;;5092663;28;19912;-75
2022/11/05 09:47:03;;;;;;;;;;;13.20;99.90;;;;;;5093117;28;19961;-75
2022/11/05 09:49:34;;;;;;;;;;;13.20;99.90;;;;;;5092743;28;19934;-76
2022/11/05 09:52:00;;;;;;;;;;;13.20;99.90;;;;;;5092861;28;19915;-76
2022/11/05 09:54:28;;;;;;;;;;;13.20;99.90;;;;;;5093047;28;19966;-76
2022/11/05 09:56:54;;;;;;;;;;;13.10;99.90;;;;;;5092371;28;19920;-76
2022/11/05 09:59:30;;;;;;;;;;;13.10;99.90;;;;;;5092940;28;19912;-75
2022/11/05 10:02:10;;;;;;;;;;;13.10;99.90;;;;;;5091067;28;19953;-75
2022/11/05 10:04:36;;;;;;;;;;;13.00;99.90;;;;;;5092123;28;20273;-75
2022/11/05 10:07:04;;;;;;;;;;;12.90;99.90;;;;;;5091642;28;19908;-75
2022/11/05 10:09:38;;;;;;;;;;;12.80;99.90;;;;;;5092810;28;19923;-74
2022/11/05 10:12:09;;;;;;;;;;;12.70;99.90;;;;;;5091500;28;20385;-75
2022/11/05 10:14:37;;;;;;;;;;;12.60;99.90;;;;;;5092470;28;19912;-75
2022/11/05 10:17:07;;;;;;;;;;;12.60;99.90;;;;;;5092733;28;19955;-75
2022/11/05 10:19:54;;;;;;;;;;;12.60;99.90;;;;;;5092337;28;20248;-75
2022/11/05 10:22:20;;;;;;;;;;;12.60;99.90;;;;;;5092681;28;19994;-74
2022/11/05 10:24:47;;;;;;;;;;;12.60;99.90;;;;;;5092140;28;20292;-75
2022/11/05 10:27:18;;;;;;;;;;;12.70;99.90;;;;;;5091192;28;20288;-75
2022/11/05 10:29:44;;;;;;;;;;;12.70;99.90;;;;;;5092060;28;19915;-75
2022/11/05 10:32:14;;;;;;;;;;;12.70;99.90;;;;;;5092851;28;20289;-74
2022/11/05 10:34:40;;;;;;;;;;;12.80;99.90;;;;;;5093311;28;19908;-74
2022/11/05 10:37:06;;;;;;;;;;;12.80;99.90;;;;;;5096437;28;19916;-74
2022/11/05 10:39:32;;;;;;;;;;;12.80;99.90;;;;;;5096241;28;19909;-74
2022/11/05 10:42:06;;;;;;;;;;;12.90;99.90;;;;;;5096370;28;20338;-74
2022/11/05 10:44:46;;;;;;;;;;;13.00;99.90;;;;;;5096664;28;19991;-74
2022/11/05 10:47:11;;;;;;;;;;;13.10;99.90;;;;;;5096772;28;19908;-73
2022/11/05 10:49:37;;;;;;;;;;;13.10;99.90;;;;;;5095696;28;19914;-75
2022/11/05 10:52:19;;;;;;;;;;;13.10;99.90;;;;;;5096151;28;19912;-75
2022/11/05 10:54:45;;;;;;;;;;;13.10;99.90;;;;;;5095760;28;20359;-75
2022/11/05 10:57:31;;;;;;;;;;;13.10;99.90;;;;;;5095485;28;19920;-75
2022/11/05 11:00:17;;;;;;;;;;;13.00;99.90;;;;;;5094200;28;19950;-75
2022/11/05 11:02:48;;;;;;;;;;;13.00;99.90;;;;;;5095105;28;20404;-75
2022/11/05 11:05:19;;;;;;;;;;;13.00;99.90;;;;;;5094686;28;19908;-75
2022/11/05 11:07:51;;;;;;;;;;;13.10;99.90;;;;;;5095484;28;19911;-75
2022/11/05 11:10:18;;;;;;;;;;;13.10;99.90;;;;;;5095764;28;19919;-74
2022/11/05 11:12:44;;;;;;;;;;;13.10;99.90;;;;;;5095201;28;19912;-76
2022/11/05 11:15:12;;;;;;;;;;;13.10;99.90;;;;;;5095835;28;19954;-74
2022/11/05 11:17:38;;;;;;;;;;;13.10;99.90;;;;;;5095359;28;20337;-76
2022/11/05 11:20:24;;;;;;;;;;;13.20;99.90;;;;;;5095325;28;19961;-74
2022/11/05 11:23:08;;;;;;;;;;;13.30;99.90;;;;;;5094700;28;19908;-74
2022/11/05 11:25:34;;;;;;;;;;;13.30;99.90;;;;;;5095938;28;19916;-74
2022/11/05 11:28:01;;;;;;;;;;;13.30;99.90;;;;;;5094869;28;19912;-75
2022/11/05 11:30:27;;;;;;;;;;;13.20;99.90;;;;;;5094051;28;19916;-74
2022/11/05 11:32:55;;;;;;;;;;;13.20;99.90;;;;;;5094699;28;19919;-74
2022/11/05 11:35:22;;;;;;;;;;;13.10;99.90;;;;;;5095256;28;20379;-75
2022/11/05 11:37:51;;;;;;;;;;;13.00;99.90;;;;;;5094678;28;19970;-75
2022/11/05 11:40:18;;;;;;;;;;;12.90;99.90;;;;;;5095534;28;19912;-74
2022/11/05 11:42:46;;;;;;;;;;;12.90;99.90;;;;;;5093499;28;19908;-74
2022/11/05 11:45:30;;;;;;;;;;;12.90;99.90;;;;;;5093506;28;19977;-75
2022/11/05 11:47:56;;;;;;;;;;;12.90;99.90;;;;;;5094595;28;19915;-75
2022/11/05 11:50:36;;;;;;;;;;;12.90;99.90;;;;;;5094849;28;19912;-74
2022/11/05 11:53:31;;;;;;;;;;;12.90;99.90;;;;;;5093125;28;20373;-74
2022/11/05 11:55:58;;;;;;;;;;;13.00;99.90;;;;;;5084095;28;19931;-75
2022/11/05 11:58:39;;;;;;;;;;;12.90;99.90;;;;;;5094961;28;19912;-74
2022/11/05 12:01:08;;;;;;;;;;;12.90;99.90;;;;;;5094563;28;19912;-75
2022/11/05 12:03:38;;;;;;;;;;;12.90;99.90;;;;;;5094795;28;19908;-75
2022/11/05 12:06:33;;;;;;;;;;;12.90;99.90;;;;;;5094321;28;19911;-75
2022/11/05 12:09:10;;;;;;;;;;;12.90;99.90;;;;;;5056192;28;19947;-74
2022/11/05 12:12:02;;;;;;;;;;;12.90;99.90;;;;;;5093171;28;20396;-74
2022/11/05 12:14:31;;;;;;;;;;;12.90;99.90;;;;;;5091613;28;19912;-74
2022/11/05 12:17:03;;;;;;;;;;;12.90;99.90;;;;;;5094748;28;19933;-74
2022/11/05 12:19:28;;;;;;;;;;;13.00;99.90;;;;;;5094759;28;19966;-75
2022/11/05 12:22:12;;;;;;;;;;;13.00;99.90;;;;;;5093910;28;19952;-74
2022/11/05 12:24:50;;;;;;;;;;;13.00;99.90;;;;;;5094492;28;19999;-74
2022/11/05 12:27:28;;;;;;;;;;;13.00;99.90;;;;;;5094265;28;19909;-74
2022/11/05 12:30:14;;;;;;;;;;;13.00;99.90;;;;;;5093906;28;20365;-74
2022/11/05 12:32:58;;;;;;;;;;;13.10;99.90;;;;;;5094372;28;19920;-74
2022/11/05 12:35:47;;;;;;;;;;;13.10;99.90;;;;;;5094344;28;19908;-75
2022/11/05 12:38:19;;;;;;;;;;;13.00;99.90;;;;;;5088458;28;19990;-75
2022/11/05 12:40:44;;;;;;;;;;;13.00;99.90;;;;;;5093667;28;19908;-75
2022/11/05 12:43:16;;;;;;;;;;;13.00;99.90;;;;;;5094288;28;19914;-75
2022/11/05 12:45:58;;;;;;;;;;;13.00;99.90;;;;;;5094179;28;19920;-74
2022/11/05 12:48:32;;;;;;;;;;;12.90;99.90;;;;;;5094086;28;19912;-75
2022/11/05 12:51:04;;;;;;;;;;;12.90;99.90;;;;;;5092273;28;19920;-74
2022/11/05 12:53:37;;;;;;;;;;;12.80;99.90;;;;;;5093303;28;20292;-74
2022/11/05 12:56:09;;;;;;;;;;;12.80;99.90;;;;;;5093337;28;19923;-75
2022/11/05 12:58:46;;;;;;;;;;;12.90;99.90;;;;;;5092980;28;19912;-75
2022/11/05 13:01:15;;;;;;;;;;;12.90;99.90;;;;;;5094179;28;19931;-75
2022/11/05 13:03:49;;;;;;;;;;;12.90;99.90;;;;;;5093548;28;19963;-75
2022/11/05 13:06:17;;;;;;;;;;;12.90;99.90;;;;;;5093753;28;19908;-75
2022/11/05 13:08:58;;;;;;;;;;;12.90;99.90;;;;;;5093580;28;19908;-74
2022/11/05 13:11:42;;;;;;;;;;;12.90;99.90;;;;;;5093835;28;19912;-75
2022/11/05 13:14:11;;;;;;;;;;;12.90;99.90;;;;;;5091614;28;19935;-74
2022/11/05 13:16:40;;;;;;;;;;;12.90;99.90;;;;;;5091678;28;19908;-74
2022/11/05 13:19:05;;;;;;;;;;;12.90;99.90;;;;;;5093244;28;19908;-75
2022/11/05 13:21:33;;;;;;;;;;;12.90;99.90;;;;;;5093159;28;19908;-75
2022/11/05 13:24:09;;;;;;;;;;;12.90;99.90;;;;;;5092139;28;19908;-76
2022/11/05 13:26:37;;;;;;;;;;;12.80;99.90;;;;;;5092655;28;19908;-74
2022/11/05 13:29:08;;;;;;;;;;;12.90;99.90;;;;;;5091953;28;20387;-75
2022/11/05 13:31:38;;;;;;;;;;;13.00;99.90;;;;;;5092473;28;19919;-75
2022/11/05 13:34:08;;;;;;;;;;;13.00;99.90;;;;;;5092031;28;20018;-75
2022/11/05 13:39:53;;;;;;;;;;;13.10;99.90;;;;;;5092688;28;19985;-74
2022/11/05 13:42:18;;;;;;;;;;;13.00;99.90;;;;;;5091242;28;19908;-75
2022/11/05 13:45:02;;;;;;;;;;;13.00;99.90;;;;;;5092699;28;19916;-75
2022/11/05 13:47:37;;;;;;;;;;;13.00;99.90;;;;;;5092094;28;19908;-75
2022/11/05 13:50:02;;;;;;;;;;;12.90;99.90;;;;;;5091992;28;19912;-75
2022/11/05 13:52:28;;;;;;;;;;;12.90;99.90;;;;;;5092745;28;19912;-75
2022/11/05 13:55:16;;;;;;;;;;;13.00;99.90;;;;;;5091633;28;19909;-76
2022/11/05 13:57:48;;;;;;;;;;;13.00;99.90;;;;;;5092442;28;19927;-75
2022/11/05 14:00:19;;;;;;;;;;;12.90;99.90;;;;;;5092505;28;20387;-76
2022/11/05 14:02:59;;;;;;;;;;;13.00;99.90;;;;;;5091724;28;19991;-75
2022/11/05 14:05:33;;;;;;;;;;;13.00;99.90;;;;;;5092209;28;19908;-74
2022/11/05 14:08:00;;;;;;;;;;;13.10;99.90;;;;;;5091359;28;19908;-75
2022/11/05 14:10:30;;;;;;;;;;;13.00;99.90;;;;;;5095891;28;19928;-75
2022/11/05 14:12:57;;;;;;;;;;;13.00;99.90;;;;;;5095902;28;19935;-74
2022/11/05 14:15:27;;;;;;;;;;;13.00;99.90;;;;;;5096326;28;19912;-75
2022/11/05 14:17:56;;;;;;;;;;;12.90;99.90;;;;;;5095756;28;19908;-75
2022/11/05 14:20:23;;;;;;;;;;;12.90;99.90;;;;;;5096383;28;19908;-74
2022/11/05 14:22:48;;;;;;;;;;;12.90;99.90;;;;;;5096061;28;19908;-76
2022/11/05 14:25:17;;;;;;;;;;;12.90;99.90;;;;;;5095803;28;20022;-75
2022/11/05 14:27:44;;;;;;;;;;;12.90;99.90;;;;;;5095763;28;19954;-76
2022/11/05 14:30:28;;;;;;;;;;;12.90;99.90;;;;;;5095248;28;19959;-74
2022/11/05 14:33:01;;;;;;;;;;;12.90;99.90;;;;;;5094991;28;19999;-75
2022/11/05 14:35:35;;;;;;;;;;;12.80;99.90;;;;;;5094684;28;19974;-75
2022/11/05 14:38:01;;;;;;;;;;;12.90;99.90;;;;;;5095126;28;19914;-75
2022/11/05 14:40:27;;;;;;;;;;;12.90;99.90;;;;;;5095822;28;20006;-74
2022/11/05 14:42:57;;;;;;;;;;;12.90;99.90;;;;;;5094878;28;19991;-75
2022/11/05 14:45:26;;;;;;;;;;;12.90;99.90;;;;;;5095785;28;19915;-75
2022/11/05 14:47:53;;;;;;;;;;;12.90;99.90;;;;;;5094978;28;19954;-76
2022/11/05 14:50:19;;;;;;;;;;;12.90;99.90;;;;;;5094345;28;19912;-74
2022/11/05 14:52:54;;;;;;;;;;;12.90;99.90;;;;;;5095409;28;20400;-75
2022/11/05 14:55:28;;;;;;;;;;;12.90;99.90;;;;;;5095394;28;20377;-75
2022/11/05 14:57:54;;;;;;;;;;;12.80;99.90;;;;;;5094412;28;20293;-75
2022/11/05 15:00:28;;;;;;;;;;;12.80;99.90;;;;;;5095090;28;19947;-75
2022/11/05 15:03:14;;;;;;;;;;;12.80;99.90;;;;;;5094769;28;19962;-75
2022/11/05 15:05:49;;;;;;;;;;;12.70;99.90;;;;;;5094771;28;19908;-75
2022/11/05 15:08:28;;;;;;;;;;;12.70;99.90;;;;;;5095033;28;20349;-75
2022/11/05 15:11:06;;;;;;;;;;;12.70;99.90;;;;;;5093376;28;19998;-76
2022/11/05 15:13:34;;;;;;;;;;;12.70;99.90;;;;;;5095044;28;20031;-75